createdAt,value
2023-03-28T00:00:44.683Z,26.98
2023-03-28T00:01:47.162Z,26.98
2023-03-28T00:02:50.013Z,26.99
2023-03-28T00:03:53.116Z,26.97
2023-03-28T00:04:56.183Z,26.99
2023-03-28T00:06:02.353Z,26.99
2023-03-28T00:07:07.172Z,27.00
2023-03-28T00:08:12.537Z,27.00
2023-03-28T00:09:16.288Z,27.01
2023-03-28T00:10:19.446Z,27.00
2023-03-28T00:11:22.153Z,27.02
2023-03-28T00:12:24.663Z,27.01
2023-03-28T00:13:28.979Z,27.03
2023-03-28T00:14:31.904Z,27.03
2023-03-28T00:15:39.614Z,27.05
2023-03-28T00:16:44.613Z,27.05
2023-03-28T00:17:47.236Z,27.05
2023-03-28T00:18:50.381Z,27.05
2023-03-28T00:19:53.029Z,27.07
2023-03-28T00:20:55.990Z,27.07
2023-03-28T00:21:58.347Z,27.07
2023-03-28T00:23:00.923Z,27.07
2023-03-28T00:24:05.225Z,27.07
2023-03-28T00:25:08.599Z,27.08
2023-03-28T00:26:12.652Z,27.08
2023-03-28T00:27:15.787Z,27.09
2023-03-28T00:28:18.645Z,27.08
2023-03-28T00:29:21.759Z,27.08
2023-03-28T00:30:24.388Z,27.08
2023-03-28T00:31:27.081Z,27.06
2023-03-28T00:32:31.647Z,27.05
2023-03-28T00:33:41.384Z,27.05
2023-03-28T00:34:46.199Z,27.04
2023-03-28T00:35:53.034Z,27.03
2023-03-28T00:36:57.182Z,27.03
2023-03-28T00:38:05.864Z,27.03
2023-03-28T00:39:10.705Z,27.02
2023-03-28T00:40:15.937Z,27.03
2023-03-28T00:41:21.105Z,27.03
2023-03-28T00:42:23.783Z,27.04
2023-03-28T00:43:42.743Z,27.04
2023-03-28T00:44:48.140Z,27.05
2023-03-28T00:46:02.669Z,27.05
2023-03-28T00:46:56.353Z,27.04
2023-03-28T00:48:04.661Z,27.05
2023-03-28T00:49:24.704Z,27.04
2023-03-28T00:50:37.161Z,27.05
2023-03-28T00:51:42.755Z,27.04
2023-03-28T00:54:32.198Z,27.15
2023-03-28T00:55:41.653Z,27.04
2023-03-28T00:56:47.726Z,27.03
2023-03-28T00:57:50.579Z,27.02
2023-03-28T00:58:54.337Z,27.02
2023-03-28T00:59:57.029Z,27.01
2023-03-28T01:00:59.797Z,27.02
2023-03-28T01:02:04.346Z,27.01
2023-03-28T01:03:07.211Z,27.01
2023-03-28T01:04:09.931Z,27.02
2023-03-28T01:05:13.086Z,27.03
2023-03-28T01:06:16.795Z,27.03
2023-03-28T01:07:19.776Z,27.04
2023-03-28T01:08:24.875Z,27.03
2023-03-28T01:09:29.037Z,27.05
2023-03-28T01:10:31.463Z,27.05
2023-03-28T01:11:37.892Z,27.05
2023-03-28T01:12:40.960Z,27.05
2023-03-28T01:13:49.067Z,27.05
2023-03-28T01:14:52.140Z,27.04
2023-03-28T01:15:56.411Z,27.04
2023-03-28T01:17:00.107Z,27.04
2023-03-28T01:18:07.532Z,27.04
2023-03-28T01:19:13.939Z,27.06
2023-03-28T01:20:25.821Z,27.05
2023-03-28T01:21:49.344Z,27.06
2023-03-28T01:23:05.068Z,27.05
2023-03-28T01:24:31.036Z,27.05
2023-03-28T01:26:10.936Z,27.05
2023-03-28T01:27:29.061Z,27.04
2023-03-28T01:28:39.070Z,27.02
2023-03-28T01:31:42.124Z,27.08
2023-03-28T01:33:27.751Z,26.95
2023-03-28T01:34:52.720Z,26.94
2023-03-28T01:36:34.433Z,26.91
2023-03-28T01:37:45.679Z,26.89
2023-03-28T01:38:55.740Z,26.85
2023-03-28T01:40:11.466Z,26.86
2023-03-28T01:43:04.593Z,26.96
2023-03-28T01:44:26.339Z,26.85
2023-03-28T01:45:45.728Z,26.84
2023-03-28T01:46:53.954Z,26.84
2023-03-28T01:48:07.952Z,26.84
2023-03-28T01:49:17.864Z,26.84
2023-03-28T01:52:08.741Z,26.96
2023-03-28T01:53:23.836Z,26.84
2023-03-28T01:54:34.728Z,26.84
2023-03-28T01:57:04.376Z,26.96
2023-03-28T01:58:16.427Z,26.86
2023-03-28T01:59:44.836Z,26.86
2023-03-28T02:02:15.805Z,26.98
2023-03-28T02:04:37.252Z,26.98
2023-03-28T02:05:40.547Z,26.89
2023-03-28T02:06:46.712Z,26.89
2023-03-28T02:07:54.185Z,26.89
2023-03-28T02:08:58.555Z,26.91
2023-03-28T02:10:23.038Z,26.94
2023-03-28T02:11:36.439Z,26.94
2023-03-28T02:12:47.744Z,26.95
2023-03-28T02:13:56.811Z,26.95
2023-03-28T02:15:15.388Z,26.94
2023-03-28T02:16:49.542Z,26.94
2023-03-28T02:18:02.099Z,26.93
2023-03-28T02:20:38.174Z,27.04
2023-03-28T02:23:14.566Z,27.04
2023-03-28T02:24:25.353Z,26.94
2023-03-28T02:25:31.227Z,26.95
2023-03-28T02:26:52.080Z,26.94
2023-03-28T02:28:07.060Z,26.95
2023-03-28T02:29:30.118Z,26.95
2023-03-28T02:30:35.467Z,26.97
2023-03-28T02:31:38.030Z,26.96
2023-03-28T02:32:42.587Z,26.96
2023-03-28T02:33:46.836Z,26.97
2023-03-28T02:34:51.127Z,26.98
2023-03-28T02:36:13.984Z,26.97
2023-03-28T02:37:38.359Z,26.97
2023-03-28T02:39:09.904Z,27.00
2023-03-28T02:40:28.662Z,27.02
2023-03-28T02:41:46.494Z,27.02
2023-03-28T02:42:56.261Z,27.02
2023-03-28T02:44:14.953Z,27.02
2023-03-28T02:45:50.914Z,27.03
2023-03-28T02:47:01.261Z,27.03
2023-03-28T02:48:32.161Z,27.03
2023-03-28T02:50:01.259Z,27.03
2023-03-28T02:51:07.626Z,27.03
2023-03-28T02:52:20.820Z,27.04
2023-03-28T02:53:34.549Z,27.02
2023-03-28T02:56:15.495Z,27.13
2023-03-28T02:57:47.960Z,27.02
2023-03-28T02:59:14.650Z,27.02
2023-03-28T03:00:19.075Z,27.02
2023-03-28T03:01:24.551Z,27.04
2023-03-28T03:02:29.237Z,27.03
2023-03-28T03:03:38.490Z,27.02
2023-03-28T03:04:41.937Z,27.02
2023-03-28T03:05:45.746Z,27.02
2023-03-28T03:06:50.659Z,27.04
2023-03-28T03:07:53.232Z,27.04
2023-03-28T03:08:56.669Z,27.04
2023-03-28T03:10:00.366Z,27.06
2023-03-28T03:11:02.990Z,27.07
2023-03-28T03:12:07.444Z,27.06
2023-03-28T03:13:10.506Z,27.07
2023-03-28T03:14:13.053Z,27.07
2023-03-28T03:15:18.471Z,27.07
2023-03-28T03:16:27.499Z,27.08
2023-03-28T03:17:30.822Z,27.08
2023-03-28T03:18:34.913Z,27.08
2023-03-28T03:19:37.497Z,27.09
2023-03-28T03:20:40.593Z,27.09
2023-03-28T03:21:46.311Z,27.11
2023-03-28T03:22:49.032Z,27.12
2023-03-28T03:23:51.553Z,27.13
2023-03-28T03:24:55.794Z,27.13
2023-03-28T03:25:59.365Z,27.14
2023-03-28T03:27:03.838Z,27.15
2023-03-28T03:28:06.654Z,27.16
2023-03-28T03:29:10.059Z,27.16
2023-03-28T03:30:13.331Z,27.15
2023-03-28T03:31:36.416Z,27.16
2023-03-28T03:32:57.887Z,27.15
2023-03-28T03:34:02.570Z,27.17
2023-03-28T03:35:07.688Z,27.16
2023-03-28T03:36:13.242Z,27.17
2023-03-28T03:37:17.319Z,27.16
2023-03-28T03:38:20.101Z,27.17
2023-03-28T03:39:23.085Z,27.18
2023-03-28T03:40:25.815Z,27.19
2023-03-28T03:41:28.685Z,27.20
2023-03-28T03:42:32.518Z,27.19
2023-03-28T03:43:35.815Z,27.19
2023-03-28T03:44:38.634Z,27.20
2023-03-28T03:45:42.831Z,27.20
2023-03-28T03:46:46.383Z,27.22
2023-03-28T03:47:49.423Z,27.21
2023-03-28T03:48:52.718Z,27.21
2023-03-28T03:49:55.535Z,27.21
2023-03-28T03:50:58.351Z,27.23
2023-03-28T03:52:02.083Z,27.23
2023-03-28T03:53:05.234Z,27.23
2023-03-28T03:54:11.056Z,27.23
2023-03-28T03:55:15.000Z,27.21
2023-03-28T03:56:20.475Z,27.21
2023-03-28T03:57:31.470Z,27.22
2023-03-28T03:58:36.909Z,27.22
2023-03-28T03:59:41.417Z,27.20
2023-03-28T04:00:47.727Z,27.20
2023-03-28T04:02:08.888Z,27.21
2023-03-28T04:03:24.134Z,27.19
2023-03-28T04:04:17.777Z,27.19
2023-03-28T04:05:25.224Z,27.19
2023-03-28T04:06:37.792Z,27.19
2023-03-28T04:07:42.467Z,27.19
2023-03-28T04:08:47.666Z,27.19
2023-03-28T04:09:52.519Z,27.18
2023-03-28T04:10:56.604Z,27.20
2023-03-28T04:11:59.781Z,27.18
2023-03-28T04:13:02.672Z,27.19
2023-03-28T04:14:05.583Z,27.19
2023-03-28T04:15:09.965Z,27.19
2023-03-28T04:16:15.223Z,27.19
2023-03-28T04:17:22.966Z,27.20
2023-03-28T04:18:28.200Z,27.19
2023-03-28T04:19:33.719Z,27.20
2023-03-28T04:20:36.324Z,27.19
2023-03-28T04:21:42.330Z,27.19
2023-03-28T04:22:47.677Z,27.19
2023-03-28T04:23:52.082Z,27.19
2023-03-28T04:25:17.458Z,27.18
2023-03-28T04:26:23.329Z,27.19
2023-03-28T04:27:32.120Z,27.19
2023-03-28T04:28:35.583Z,27.19
2023-03-28T04:29:41.166Z,27.19
2023-03-28T04:31:03.864Z,27.20
2023-03-28T04:33:34.135Z,27.31
2023-03-28T04:34:39.840Z,27.18
2023-03-28T04:35:45.051Z,27.17
2023-03-28T04:36:48.864Z,27.15
2023-03-28T04:37:53.863Z,27.15
2023-03-28T04:38:59.244Z,27.15
2023-03-28T04:40:10.508Z,27.14
2023-03-28T04:41:25.261Z,27.13
2023-03-28T04:42:32.505Z,27.14
2023-03-28T04:43:37.204Z,27.14
2023-03-28T04:44:40.717Z,27.15
2023-03-28T04:45:44.864Z,27.15
2023-03-28T04:46:50.666Z,27.16
2023-03-28T04:47:53.786Z,27.15
2023-03-28T04:48:57.938Z,27.16
2023-03-28T04:50:02.559Z,27.16
2023-03-28T04:51:07.691Z,27.17
2023-03-28T04:52:12.407Z,27.17
2023-03-28T04:53:17.353Z,27.17
2023-03-28T04:54:25.201Z,27.16
2023-03-28T04:55:43.797Z,27.16
2023-03-28T04:56:48.810Z,27.16
2023-03-28T04:57:53.244Z,27.17
2023-03-28T04:58:56.821Z,27.15
2023-03-28T05:00:03.835Z,27.17
2023-03-28T05:02:33.964Z,27.27
2023-03-28T05:03:38.230Z,27.16
2023-03-28T05:04:42.414Z,27.17
2023-03-28T05:05:46.779Z,27.17
2023-03-28T05:06:49.568Z,27.18
2023-03-28T05:07:52.581Z,27.19
2023-03-28T05:08:58.052Z,27.20
2023-03-28T05:10:03.030Z,27.19
2023-03-28T05:11:07.923Z,27.21
2023-03-28T05:12:13.081Z,27.23
2023-03-28T05:13:29.537Z,27.23
2023-03-28T05:14:40.921Z,27.23
2023-03-28T05:15:45.936Z,27.23
2023-03-28T05:16:57.440Z,27.24
2023-03-28T05:18:02.931Z,27.24
2023-03-28T05:19:09.543Z,27.26
2023-03-28T05:20:31.865Z,27.24
2023-03-28T05:21:34.896Z,27.26
2023-03-28T05:22:38.144Z,27.26
2023-03-28T05:23:41.982Z,27.27
2023-03-28T05:24:47.121Z,27.27
2023-03-28T05:25:54.870Z,27.25
2023-03-28T05:26:58.847Z,27.26
2023-03-28T05:28:03.337Z,27.26
2023-03-28T05:29:06.868Z,27.26
2023-03-28T05:30:11.012Z,27.25
2023-03-28T05:31:16.546Z,27.26
2023-03-28T05:32:19.093Z,27.25
2023-03-28T05:33:22.696Z,27.26
2023-03-28T05:34:26.259Z,27.25
2023-03-28T05:35:30.429Z,27.25
2023-03-28T05:36:34.591Z,27.25
2023-03-28T05:37:39.793Z,27.26
2023-03-28T05:38:43.540Z,27.25
2023-03-28T05:39:47.819Z,27.26
2023-03-28T05:40:51.691Z,27.25
2023-03-28T05:41:54.588Z,27.23
2023-03-28T05:42:57.087Z,27.24
2023-03-28T05:43:59.729Z,27.17
2023-03-28T05:45:06.417Z,27.17
2023-03-28T05:46:12.172Z,27.22
2023-03-28T05:47:16.951Z,27.21
2023-03-28T05:48:19.954Z,27.22
2023-03-28T05:49:23.975Z,27.21
2023-03-28T05:50:28.492Z,27.22
2023-03-28T05:51:33.177Z,27.23
2023-03-28T05:52:36.442Z,27.23
2023-03-28T05:53:41.955Z,27.23
2023-03-28T05:54:50.636Z,27.23
2023-03-28T05:55:53.323Z,27.23
2023-03-28T05:56:56.632Z,27.23
2023-03-28T05:58:01.168Z,27.22
2023-03-28T05:59:05.549Z,27.23
2023-03-28T06:00:14.447Z,27.23
2023-03-28T06:01:26.944Z,27.21
2023-03-28T06:02:32.807Z,27.21
2023-03-28T06:03:38.337Z,27.21
2023-03-28T06:04:42.932Z,27.21
2023-03-28T06:05:47.349Z,27.20
2023-03-28T06:06:54.907Z,27.19
2023-03-28T06:08:01.296Z,27.18
2023-03-28T06:09:05.206Z,27.17
2023-03-28T06:10:11.735Z,27.16
2023-03-28T06:11:19.723Z,27.16
2023-03-28T06:12:24.208Z,27.17
2023-03-28T06:13:27.104Z,27.15
2023-03-28T06:14:32.970Z,27.15
2023-03-28T06:15:38.337Z,27.16
2023-03-28T06:16:41.360Z,27.17
2023-03-28T06:17:44.609Z,27.18
2023-03-28T06:18:48.038Z,27.18
2023-03-28T06:19:51.757Z,27.17
2023-03-28T06:20:54.863Z,27.18
2023-03-28T06:21:58.911Z,27.18
2023-03-28T06:23:03.113Z,27.17
2023-03-28T06:24:10.399Z,27.17
2023-03-28T06:25:15.368Z,27.17
2023-03-28T06:26:18.567Z,27.16
2023-03-28T06:27:22.196Z,27.17
2023-03-28T06:28:24.848Z,27.16
2023-03-28T06:29:38.759Z,27.15
2023-03-28T06:30:42.803Z,27.15
2023-03-28T06:31:46.664Z,27.14
2023-03-28T06:32:49.487Z,27.13
2023-03-28T06:33:53.630Z,27.12
2023-03-28T06:34:57.342Z,27.12
2023-03-28T06:36:00.038Z,27.12
2023-03-28T06:37:05.202Z,27.11
2023-03-28T06:38:12.432Z,27.11
2023-03-28T06:39:18.058Z,27.11
2023-03-28T06:40:20.644Z,27.12
2023-03-28T06:41:23.627Z,27.11
2023-03-28T06:42:27.199Z,27.12
2023-03-28T06:43:43.652Z,27.12
2023-03-28T06:44:49.425Z,27.12
2023-03-28T06:46:03.330Z,27.11
2023-03-28T06:47:11.919Z,27.10
2023-03-28T06:48:15.934Z,27.10
2023-03-28T06:49:36.980Z,27.09
2023-03-28T06:50:58.052Z,27.07
2023-03-28T06:52:02.476Z,27.07
2023-03-28T06:53:05.908Z,27.05
2023-03-28T06:54:08.512Z,27.04
2023-03-28T06:55:13.744Z,27.04
2023-03-28T06:56:17.444Z,27.04
2023-03-28T06:57:20.210Z,27.04
2023-03-28T06:58:38.539Z,27.04
2023-03-28T06:59:44.217Z,27.03
2023-03-28T07:00:54.081Z,27.04
2023-03-28T07:02:15.136Z,27.06
2023-03-28T07:03:19.585Z,27.04
2023-03-28T07:04:22.331Z,27.04
2023-03-28T07:05:25.806Z,27.03
2023-03-28T07:06:29.985Z,27.02
2023-03-28T07:07:33.074Z,27.03
2023-03-28T07:08:36.091Z,27.02
2023-03-28T07:09:39.410Z,27.01
2023-03-28T07:10:43.846Z,27.01
2023-03-28T07:11:47.045Z,27.02
2023-03-28T07:12:50.619Z,27.00
2023-03-28T07:13:53.961Z,26.99
2023-03-28T07:14:58.498Z,26.98
2023-03-28T07:16:07.520Z,26.97
2023-03-28T07:17:11.271Z,26.97
2023-03-28T07:18:13.975Z,26.95
2023-03-28T07:19:16.429Z,26.94
2023-03-28T07:20:23.063Z,26.86
2023-03-28T07:21:27.486Z,26.91
2023-03-28T07:22:32.458Z,26.87
2023-03-28T07:23:35.892Z,26.87
2023-03-28T07:24:39.607Z,26.86
2023-03-28T07:25:44.772Z,26.86
2023-03-28T07:26:48.957Z,26.85
2023-03-28T07:27:52.281Z,26.85
2023-03-28T07:28:55.653Z,26.85
2023-03-28T07:29:58.884Z,26.84
2023-03-28T07:31:03.673Z,26.84
2023-03-28T07:32:08.378Z,26.82
2023-03-28T07:33:17.474Z,26.82
2023-03-28T07:34:18.566Z,26.81
2023-03-28T07:35:22.797Z,26.79
2023-03-28T07:36:27.717Z,26.79
2023-03-28T07:37:33.235Z,26.78
2023-03-28T07:38:41.175Z,26.79
2023-03-28T07:39:45.325Z,26.79
2023-03-28T07:40:49.853Z,26.78
2023-03-28T07:41:52.590Z,26.78
2023-03-28T07:42:56.050Z,26.78
2023-03-28T07:44:00.127Z,26.78
2023-03-28T07:45:02.935Z,26.77
2023-03-28T07:46:07.568Z,26.76
2023-03-28T07:47:11.535Z,26.75
2023-03-28T07:48:14.818Z,26.76
2023-03-28T07:49:20.144Z,26.76
2023-03-28T07:50:24.945Z,26.77
2023-03-28T07:51:27.797Z,26.76
2023-03-28T07:52:30.738Z,26.76
2023-03-28T07:53:37.107Z,26.77
2023-03-28T07:54:39.920Z,26.77
2023-03-28T07:55:54.282Z,26.77
2023-03-28T07:56:51.105Z,26.76
2023-03-28T07:58:13.794Z,26.77
2023-03-28T07:59:18.665Z,26.76
2023-03-28T08:00:24.721Z,26.76
2023-03-28T08:01:39.508Z,26.74
2023-03-28T08:02:49.201Z,26.72
2023-03-28T08:03:52.223Z,26.72
2023-03-28T08:04:55.084Z,26.71
2023-03-28T08:06:13.741Z,26.70
2023-03-28T08:07:15.463Z,26.69
2023-03-28T08:08:20.293Z,26.68
2023-03-28T08:09:25.201Z,26.67
2023-03-28T08:10:29.691Z,26.67
2023-03-28T08:11:36.704Z,26.67
2023-03-28T08:12:40.737Z,26.65
2023-03-28T08:13:58.178Z,26.66
2023-03-28T08:15:02.387Z,26.65
2023-03-28T08:16:08.953Z,26.65
2023-03-28T08:17:12.344Z,26.65
2023-03-28T08:18:17.231Z,26.66
2023-03-28T08:19:21.003Z,26.66
2023-03-28T08:20:43.730Z,26.65
2023-03-28T08:21:49.093Z,26.63
2023-03-28T08:22:52.474Z,26.62
2023-03-28T08:23:59.833Z,26.62
2023-03-28T08:25:09.783Z,26.60
2023-03-28T08:26:15.512Z,26.58
2023-03-28T08:27:20.475Z,26.58
2023-03-28T08:28:25.576Z,26.58
2023-03-28T08:29:29.925Z,26.57
2023-03-28T08:30:33.010Z,26.56
2023-03-28T08:31:39.198Z,26.57
2023-03-28T08:32:45.621Z,26.58
2023-03-28T08:33:50.863Z,26.58
2023-03-28T08:34:57.658Z,26.60
2023-03-28T08:36:03.244Z,26.59
2023-03-28T08:37:07.274Z,26.59
2023-03-28T08:38:11.975Z,26.57
2023-03-28T08:39:16.337Z,26.58
2023-03-28T08:40:21.166Z,26.57
2023-03-28T08:41:48.187Z,26.59
2023-03-28T08:43:03.342Z,26.60
2023-03-28T08:44:29.362Z,26.57
2023-03-28T08:45:46.036Z,26.58
2023-03-28T08:46:52.339Z,26.57
2023-03-28T08:48:00.212Z,26.55
2023-03-28T08:49:07.863Z,26.55
2023-03-28T08:50:16.269Z,26.54
2023-03-28T08:51:40.439Z,26.55
2023-03-28T08:52:43.364Z,26.53
2023-03-28T08:54:06.167Z,26.54
2023-03-28T08:55:33.730Z,26.53
2023-03-28T08:56:46.809Z,26.53
2023-03-28T08:57:52.497Z,26.54
2023-03-28T08:59:10.221Z,26.54
2023-03-28T09:00:26.864Z,26.55
2023-03-28T09:01:32.188Z,26.55
2023-03-28T09:02:35.530Z,26.55
2023-03-28T09:03:39.327Z,26.56
2023-03-28T09:04:44.695Z,26.58
2023-03-28T09:06:08.513Z,26.58
2023-03-28T09:08:46.689Z,26.71
2023-03-28T09:10:03.152Z,26.63
2023-03-28T09:11:39.131Z,26.62
2023-03-28T09:15:28.500Z,26.75
2023-03-28T09:18:32.128Z,26.75
2023-03-28T09:19:56.946Z,26.65
2023-03-28T09:21:14.417Z,26.64
2023-03-28T09:22:27.780Z,26.65
2023-03-28T09:23:53.499Z,26.66
2023-03-28T09:25:18.038Z,26.66
2023-03-28T09:26:35.923Z,26.66
2023-03-28T09:28:03.683Z,26.65
2023-03-28T09:29:09.858Z,26.66
2023-03-28T09:31:33.547Z,26.74
2023-03-28T09:32:39.018Z,26.64
2023-03-28T09:33:43.025Z,26.64
2023-03-28T09:36:04.895Z,26.76
2023-03-28T09:37:33.242Z,26.66
2023-03-28T09:38:41.534Z,26.67
2023-03-28T09:39:48.533Z,26.68
2023-03-28T09:40:51.659Z,26.69
2023-03-28T09:42:04.793Z,26.69
2023-03-28T09:43:30.586Z,26.70
2023-03-28T09:45:05.305Z,26.71
2023-03-28T09:47:36.918Z,26.81
2023-03-28T09:48:43.660Z,26.71
2023-03-28T09:49:47.396Z,26.70
2023-03-28T09:51:04.442Z,26.70
2023-03-28T09:53:33.399Z,26.78
2023-03-28T09:54:36.652Z,26.68
2023-03-28T09:55:40.962Z,26.67
2023-03-28T09:56:44.587Z,26.67
2023-03-28T09:58:07.216Z,26.67
2023-03-28T10:00:36.985Z,26.77
2023-03-28T10:01:49.264Z,26.66
2023-03-28T10:03:00.264Z,26.66
2023-03-28T10:04:19.399Z,26.64
2023-03-28T10:05:42.682Z,26.62
2023-03-28T10:06:56.194Z,26.61
2023-03-28T10:08:02.560Z,26.62
2023-03-28T10:09:24.503Z,26.61
2023-03-28T10:10:29.439Z,26.59
2023-03-28T10:11:57.372Z,26.56
2023-03-28T10:13:03.301Z,26.55
2023-03-28T10:14:10.935Z,26.54
2023-03-28T10:15:35.201Z,26.54
2023-03-28T10:17:12.344Z,26.54
2023-03-28T10:18:19.159Z,26.53
2023-03-28T10:19:24.742Z,26.53
2023-03-28T10:20:36.982Z,26.52
2023-03-28T10:21:41.279Z,26.52
2023-03-28T10:22:47.910Z,26.52
2023-03-28T10:23:59.032Z,26.53
2023-03-28T10:25:03.917Z,26.51
2023-03-28T10:26:07.067Z,26.51
2023-03-28T10:27:23.195Z,26.51
2023-03-28T10:28:32.135Z,26.52
2023-03-28T10:29:37.592Z,26.51
2023-03-28T10:30:41.777Z,26.50
2023-03-28T10:31:50.752Z,26.49
2023-03-28T10:33:22.720Z,26.49
2023-03-28T10:34:42.211Z,26.48
2023-03-28T10:35:48.716Z,26.37
2023-03-28T10:36:53.143Z,26.35
2023-03-28T10:37:58.175Z,26.31
2023-03-28T10:40:36.883Z,26.42
2023-03-28T10:41:58.145Z,26.33
2023-03-28T10:43:19.929Z,26.29
2023-03-28T10:44:30.126Z,26.28
2023-03-28T10:45:43.155Z,26.28
2023-03-28T10:46:47.696Z,26.29
2023-03-28T10:47:52.966Z,26.31
2023-03-28T10:49:13.809Z,26.31
2023-03-28T10:51:48.488Z,26.44
2023-03-28T10:53:02.486Z,26.33
2023-03-28T10:54:16.487Z,26.36
2023-03-28T10:55:25.538Z,26.37
2023-03-28T10:56:34.608Z,26.39
2023-03-28T10:59:10.998Z,26.53
2023-03-28T11:01:52.918Z,26.57
2023-03-28T11:03:29.210Z,26.49
2023-03-28T11:04:35.411Z,26.49
2023-03-28T11:05:58.129Z,26.50
2023-03-28T11:07:20.204Z,26.52
2023-03-28T11:08:54.673Z,26.51
2023-03-28T11:10:09.455Z,26.52
2023-03-28T11:11:35.280Z,26.52
2023-03-28T11:12:54.410Z,26.51
2023-03-28T11:14:06.305Z,26.51
2023-03-28T11:15:31.722Z,26.51
2023-03-28T11:16:49.463Z,26.51
2023-03-28T11:18:00.848Z,26.52
2023-03-28T11:19:17.029Z,26.51
2023-03-28T11:20:42.942Z,26.53
2023-03-28T11:22:04.004Z,26.54
2023-03-28T11:23:38.049Z,26.55
2023-03-28T11:25:02.371Z,26.55
2023-03-28T11:27:53.164Z,26.66
2023-03-28T11:29:44.060Z,26.55
2023-03-28T11:30:51.208Z,26.54
2023-03-28T11:34:00.369Z,26.63
2023-03-28T11:35:15.512Z,26.52
2023-03-28T11:36:36.057Z,26.50
2023-03-28T11:37:59.949Z,26.50
2023-03-28T11:39:11.000Z,26.49
2023-03-28T11:40:31.675Z,26.50
2023-03-28T11:41:37.371Z,26.50
2023-03-28T11:42:53.475Z,26.50
2023-03-28T11:44:06.350Z,26.51
2023-03-28T11:45:12.691Z,26.52
2023-03-28T11:46:32.046Z,26.53
2023-03-28T11:47:42.304Z,26.55
2023-03-28T11:48:57.625Z,26.57
2023-03-28T11:50:07.356Z,26.58
2023-03-28T11:51:21.018Z,26.61
2023-03-28T11:52:27.797Z,26.64
2023-03-28T11:53:34.322Z,26.67
2023-03-28T11:55:04.654Z,26.69
2023-03-28T11:56:36.025Z,26.70
2023-03-28T11:59:38.064Z,26.85
2023-03-28T12:02:31.094Z,26.85
2023-03-28T12:03:58.828Z,26.76
2023-03-28T12:05:32.484Z,26.77
2023-03-28T12:07:14.769Z,26.77
2023-03-28T12:08:25.656Z,26.77
2023-03-28T12:09:50.113Z,26.78
2023-03-28T12:10:56.211Z,26.79
2023-03-28T12:12:09.796Z,26.79
2023-03-28T12:13:22.896Z,26.80
2023-03-28T12:15:53.748Z,26.93
2023-03-28T12:16:59.374Z,26.82
2023-03-28T12:18:06.120Z,26.83
2023-03-28T12:19:10.511Z,26.83
2023-03-28T12:20:57.129Z,26.84
2023-03-28T12:22:04.860Z,26.84
2023-03-28T12:23:21.312Z,26.85
2023-03-28T12:26:17.626Z,26.98
2023-03-28T12:27:24.862Z,26.88
2023-03-28T12:30:00.130Z,27.00
2023-03-28T12:31:14.359Z,26.90
2023-03-28T12:32:37.743Z,26.88
2023-03-28T12:33:48.376Z,26.90
2023-03-28T12:36:38.111Z,27.04
2023-03-28T12:38:00.007Z,26.95
2023-03-28T12:39:35.173Z,26.96
2023-03-28T12:41:05.072Z,26.97
2023-03-28T12:42:10.873Z,26.98
2023-03-28T12:43:14.792Z,26.99
2023-03-28T12:44:25.046Z,26.99
2023-03-28T12:45:30.939Z,27.00
2023-03-28T12:46:42.276Z,27.00
2023-03-28T12:47:50.668Z,27.01
2023-03-28T12:50:25.368Z,27.08
2023-03-28T12:51:34.119Z,26.98
2023-03-28T12:52:38.113Z,26.98
2023-03-28T12:53:44.760Z,26.97
2023-03-28T12:55:06.982Z,26.96
2023-03-28T12:56:13.456Z,26.96
2023-03-28T12:57:30.437Z,26.96
2023-03-28T12:58:28.135Z,26.97
2023-03-28T13:00:06.513Z,26.97
2023-03-28T13:01:31.345Z,26.98
2023-03-28T13:03:09.730Z,26.98
2023-03-28T13:04:15.676Z,26.98
2023-03-28T13:05:32.930Z,26.97
2023-03-28T13:06:52.475Z,26.96
2023-03-28T13:08:08.477Z,26.96
2023-03-28T13:09:31.770Z,26.95
2023-03-28T13:12:29.263Z,27.05
2023-03-28T13:15:21.883Z,27.02
2023-03-28T13:16:50.104Z,26.91
2023-03-28T13:18:22.982Z,26.91
2023-03-28T13:19:52.372Z,26.90
2023-03-28T13:20:57.153Z,26.89
2023-03-28T13:21:59.807Z,26.88
2023-03-28T13:23:06.889Z,26.88
2023-03-28T13:25:32.974Z,26.99
2023-03-28T13:26:57.096Z,26.88
2023-03-28T13:28:19.307Z,26.88
2023-03-28T13:29:23.785Z,26.89
2023-03-28T13:30:30.538Z,26.90
2023-03-28T13:31:33.848Z,26.90
2023-03-28T13:32:46.562Z,26.89
2023-03-28T13:34:00.223Z,26.90
2023-03-28T13:35:04.974Z,26.90
2023-03-28T13:36:13.132Z,26.91
2023-03-28T13:37:24.770Z,26.91
2023-03-28T13:38:31.060Z,26.91
2023-03-28T13:39:34.692Z,26.92
2023-03-28T13:40:46.440Z,26.92
2023-03-28T13:41:55.040Z,26.94
2023-03-28T13:42:58.448Z,26.94
2023-03-28T13:44:05.290Z,26.94
2023-03-28T13:45:23.558Z,26.94
2023-03-28T13:46:32.724Z,26.94
2023-03-28T13:47:38.891Z,26.94
2023-03-28T13:49:02.545Z,26.95
2023-03-28T13:50:22.633Z,26.95
2023-03-28T13:51:28.879Z,26.95
2023-03-28T13:52:31.961Z,26.94
2023-03-28T13:53:47.049Z,26.95
2023-03-28T13:54:41.481Z,26.94
2023-03-28T13:55:44.798Z,26.94
2023-03-28T13:56:49.433Z,26.94
2023-03-28T13:57:52.123Z,26.95
2023-03-28T13:58:55.857Z,26.93
2023-03-28T14:00:00.775Z,26.95
2023-03-28T14:01:08.228Z,26.94
2023-03-28T14:02:17.834Z,26.96
2023-03-28T14:03:21.644Z,26.95
2023-03-28T14:04:29.412Z,26.96
2023-03-28T14:05:33.404Z,26.97
2023-03-28T14:06:42.643Z,26.96
2023-03-28T14:07:46.535Z,26.97
2023-03-28T14:08:52.814Z,26.98
2023-03-28T14:09:58.424Z,26.97
2023-03-28T14:11:02.685Z,26.97
2023-03-28T14:12:12.549Z,26.97
2023-03-28T14:15:50.245Z,27.08
2023-03-28T14:16:53.169Z,26.98
2023-03-28T14:17:58.150Z,26.98
2023-03-28T14:19:04.073Z,26.98
2023-03-28T14:20:08.189Z,26.98
2023-03-28T14:21:10.675Z,26.94
2023-03-28T14:23:57.745Z,27.11
2023-03-28T14:25:09.046Z,27.01
2023-03-28T14:27:39.591Z,27.11
2023-03-28T14:28:45.728Z,27.00
2023-03-28T14:29:52.830Z,27.00
2023-03-28T14:30:55.823Z,26.99
2023-03-28T14:31:59.474Z,27.00
2023-03-28T14:33:16.132Z,26.98
2023-03-28T14:34:26.145Z,26.99
2023-03-28T14:35:31.090Z,27.00
2023-03-28T14:36:41.068Z,26.99
2023-03-28T14:37:51.280Z,27.00
2023-03-28T14:38:55.528Z,26.99
2023-03-28T14:39:59.748Z,27.00
2023-03-28T14:42:27.901Z,27.10
2023-03-28T14:43:30.889Z,27.00
2023-03-28T14:44:42.173Z,26.99
2023-03-28T14:45:53.193Z,27.00
2023-03-28T14:46:57.596Z,26.99
2023-03-28T14:48:00.393Z,26.99
2023-03-28T14:49:05.732Z,26.99
2023-03-28T14:50:15.009Z,27.00
2023-03-28T14:51:18.101Z,27.00
2023-03-28T14:52:31.590Z,26.99
2023-03-28T14:53:37.554Z,27.00
2023-03-28T14:54:47.727Z,27.00
2023-03-28T14:55:51.203Z,26.99
2023-03-28T14:56:55.568Z,26.99
2023-03-28T14:57:58.418Z,26.99
2023-03-28T14:59:02.088Z,26.98
2023-03-28T15:00:08.638Z,26.98
2023-03-28T15:01:17.138Z,26.95
2023-03-28T15:02:32.117Z,26.93
2023-03-28T15:03:39.413Z,26.92
2023-03-28T15:04:42.828Z,26.91
2023-03-28T15:07:02.368Z,26.98
2023-03-28T15:08:05.673Z,26.87
2023-03-28T15:10:24.984Z,26.96
2023-03-28T15:12:47.658Z,26.94
2023-03-28T15:13:52.733Z,26.82
2023-03-28T15:14:55.092Z,26.81
2023-03-28T15:15:58.569Z,26.79
2023-03-28T15:17:01.453Z,26.78
2023-03-28T15:18:09.323Z,26.77
2023-03-28T15:19:19.509Z,26.77
2023-03-28T15:20:26.582Z,26.77
2023-03-28T15:21:29.250Z,26.77
2023-03-28T15:22:33.971Z,26.74
2023-03-28T15:23:51.634Z,26.71
2023-03-28T15:24:55.239Z,26.68
2023-03-28T15:26:04.590Z,26.66
2023-03-28T15:27:08.438Z,26.67
2023-03-28T15:28:14.138Z,26.66
2023-03-28T15:29:18.024Z,26.66
2023-03-28T15:30:20.608Z,26.66
2023-03-28T15:31:24.594Z,26.64
2023-03-28T15:32:28.523Z,26.62
2023-03-28T15:33:33.395Z,26.61
2023-03-28T15:34:50.305Z,26.59
2023-03-28T15:36:09.151Z,26.57
2023-03-28T15:37:21.187Z,26.56
2023-03-28T15:38:28.439Z,26.55
2023-03-28T15:39:34.149Z,26.53
2023-03-28T15:40:41.930Z,26.52
2023-03-28T15:41:48.172Z,26.50
2023-03-28T15:42:51.723Z,26.50
2023-03-28T15:43:59.773Z,26.47
2023-03-28T15:46:34.424Z,26.54
2023-03-28T15:47:41.125Z,26.43
2023-03-28T15:48:43.639Z,26.41
2023-03-28T15:49:46.472Z,26.40
2023-03-28T15:50:51.660Z,26.39
2023-03-28T15:52:02.519Z,26.38
2023-03-28T15:53:08.196Z,26.36
2023-03-28T15:54:23.915Z,26.36
2023-03-28T15:55:24.387Z,26.37
2023-03-28T15:56:28.962Z,26.37
2023-03-28T15:57:32.103Z,26.38
2023-03-28T15:58:35.499Z,26.39